This is the latest recevied weather packets stored in our database for station/object OK1FET-6. If no packets are shown the sender has not sent any weather packets the latest 1 day(s).
| Time | Temp. | Humidity | Pressure | Rain* | Wind** | Luminosity | Snow |
|---|---|---|---|---|---|---|---|
| 1778026742 | 13.89° C | 82% | 1005.4 hPa | 0.51 mm | - | - | - |
| 1778025832 | 13.89° C | 82% | 1005.3 hPa | 1.02 mm | - | - | - |
| 1778024619 | 13.89° C | 81% | 1005.2 hPa | 1.02 mm | - | - | - |
| 1778023708 | 13.89° C | 80% | 1005.5 hPa | 0.51 mm | - | - | - |
| 1778023405 | 13.33° C | 79% | 1005.6 hPa | 0.51 mm | - | - | - |
| 1778022202 | 13.89° C | 78% | 1005.5 hPa | 0 mm | - | - | - |
| 1778021292 | 13.89° C | 76% | 1005.6 hPa | 1.02 mm | - | - | - |
| 1778020079 | 14.44° C | 75% | 1005.6 hPa | 1.52 mm | - | - | - |
| 1778019169 | 14.44° C | 74% | 1005.8 hPa | 1.52 mm | - | - | - |
| 1778018259 | 15° C | 73% | 1005.8 hPa | 2.03 mm | - | - | - |
| 1778016134 | 15.56° C | 68% | 1005.6 hPa | 2.03 mm | - | - | - |
| 1778014009 | 16.11° C | 57% | 1004.9 hPa | 0.51 mm | - | - | - |
| 1778013706 | 16.67° C | 54% | 1004.8 hPa | 0.51 mm | - | - | - |
| 1778012814 | 17.22° C | 49% | 1003.8 hPa | 0 mm | - | - | - |
| 1778012217 | 17.78° C | 47% | 1003.7 hPa | 0 mm | - | - | - |
| 1778011620 | 17.22° C | 47% | 1003.3 hPa | 0 mm | - | - | - |
| 1778010127 | 17.22° C | 46% | 1002.8 hPa | 0 mm | - | - | - |
| 1778009530 | 17.78° C | 46% | 1002.7 hPa | 0 mm | - | - | - |
| 1778008933 | 17.78° C | 46% | 1002.7 hPa | 0 mm | - | - | - |
| 1778007440 | 18.33° C | 45% | 1002.9 hPa | 0 mm | - | - | - |
| 1778006843 | 18.33° C | 44% | 1003.1 hPa | 0 mm | - | - | - |
| 1778006246 | 18.89° C | 44% | 1003 hPa | 0 mm | - | - | - |
| 1778005649 | 18.89° C | 44% | 1003 hPa | 0 mm | - | - | - |
| 1778005052 | 19.44° C | 43% | 1002.9 hPa | 0 mm | - | - | - |
| 1778004455 | 20° C | 43% | 1003 hPa | 0 mm | - | - | - |
* Rain latest hour (hover to see other rain measurements)
** Current wind speed in m/s (hover to see current wind gust speed)